sensor_id;sensor_type;location;lat;lon;timestamp;temperature;humidity
17348;DHT22;8791;50.876;4.342;2023-05-14T00:01:29;14.10;99.90
17348;DHT22;8791;50.876;4.342;2023-05-14T00:03:58;13.70;99.90
17348;DHT22;8791;50.876;4.342;2023-05-14T00:06:25;13.50;99.90
17348;DHT22;8791;50.876;4.342;2023-05-14T00:08:51;13.60;99.90
17348;DHT22;8791;50.876;4.342;2023-05-14T00:11:18;13.80;99.90
17348;DHT22;8791;50.876;4.342;2023-05-14T00:13:46;13.70;99.90
17348;DHT22;8791;50.876;4.342;2023-05-14T00:16:12;13.60;99.90
17348;DHT22;8791;50.876;4.342;2023-05-14T00:18:40;13.50;99.90
17348;DHT22;8791;50.876;4.342;2023-05-14T00:21:09;13.70;99.90
17348;DHT22;8791;50.876;4.342;2023-05-14T00:23:35;13.90;99.90
17348;DHT22;8791;50.876;4.342;2023-05-14T00:26:02;13.80;99.90
17348;DHT22;8791;50.876;4.342;2023-05-14T00:28:29;13.90;99.90
17348;DHT22;8791;50.876;4.342;2023-05-14T00:30:56;13.80;99.90
17348;DHT22;8791;50.876;4.342;2023-05-14T00:33:23;13.80;99.90
17348;DHT22;8791;50.876;4.342;2023-05-14T00:35:50;13.70;99.90
17348;DHT22;8791;50.876;4.342;2023-05-14T00:38:18;13.40;99.90
17348;DHT22;8791;50.876;4.342;2023-05-14T00:40:45;13.40;99.90
17348;DHT22;8791;50.876;4.342;2023-05-14T00:43:16;13.30;99.90
17348;DHT22;8791;50.876;4.342;2023-05-14T00:45:43;13.30;99.90
17348;DHT22;8791;50.876;4.342;2023-05-14T00:48:11;13.40;99.90
17348;DHT22;8791;50.876;4.342;2023-05-14T00:50:39;13.40;99.90
17348;DHT22;8791;50.876;4.342;2023-05-14T00:53:06;13.50;99.90
17348;DHT22;8791;50.876;4.342;2023-05-14T00:55:37;13.70;99.90
17348;DHT22;8791;50.876;4.342;2023-05-14T00:58:10;13.60;99.90
17348;DHT22;8791;50.876;4.342;2023-05-14T01:00:38;13.50;99.90
17348;DHT22;8791;50.876;4.342;2023-05-14T01:03:06;13.50;99.90
17348;DHT22;8791;50.876;4.342;2023-05-14T01:05:38;13.40;99.90
17348;DHT22;8791;50.876;4.342;2023-05-14T01:08:15;13.50;99.90
17348;DHT22;8791;50.876;4.342;2023-05-14T01:10:49;13.50;99.90
17348;DHT22;8791;50.876;4.342;2023-05-14T01:13:25;13.70;99.90
17348;DHT22;8791;50.876;4.342;2023-05-14T01:15:55;13.70;99.90
17348;DHT22;8791;50.876;4.342;2023-05-14T01:18:24;13.60;99.90
17348;DHT22;8791;50.876;4.342;2023-05-14T01:20:53;13.60;99.90
17348;DHT22;8791;50.876;4.342;2023-05-14T01:23:21;13.60;99.90
17348;DHT22;8791;50.876;4.342;2023-05-14T01:25:48;13.60;99.90
17348;DHT22;8791;50.876;4.342;2023-05-14T01:28:17;13.50;99.90
17348;DHT22;8791;50.876;4.342;2023-05-14T01:30:51;13.50;99.90
17348;DHT22;8791;50.876;4.342;2023-05-14T01:33:19;13.60;99.90
17348;DHT22;8791;50.876;4.342;2023-05-14T01:35:47;13.60;99.90
17348;DHT22;8791;50.876;4.342;2023-05-14T01:38:18;13.70;99.90
17348;DHT22;8791;50.876;4.342;2023-05-14T01:40:47;13.80;99.90
17348;DHT22;8791;50.876;4.342;2023-05-14T01:43:16;13.70;99.90
17348;DHT22;8791;50.876;4.342;2023-05-14T01:45:42;13.70;99.90
17348;DHT22;8791;50.876;4.342;2023-05-14T01:48:10;13.60;99.90
17348;DHT22;8791;50.876;4.342;2023-05-14T01:50:36;13.60;99.90
17348;DHT22;8791;50.876;4.342;2023-05-14T01:53:03;13.60;99.90
17348;DHT22;8791;50.876;4.342;2023-05-14T01:55:31;13.70;99.90
17348;DHT22;8791;50.876;4.342;2023-05-14T01:57:59;13.80;99.90
17348;DHT22;8791;50.876;4.342;2023-05-14T02:00:26;13.80;99.90
17348;DHT22;8791;50.876;4.342;2023-05-14T02:02:53;13.80;99.90
17348;DHT22;8791;50.876;4.342;2023-05-14T02:05:20;13.70;99.90
17348;DHT22;8791;50.876;4.342;2023-05-14T02:07:46;13.70;99.90
17348;DHT22;8791;50.876;4.342;2023-05-14T02:10:13;13.60;99.90
17348;DHT22;8791;50.876;4.342;2023-05-14T02:12:40;13.30;99.90
17348;DHT22;8791;50.876;4.342;2023-05-14T02:15:09;13.40;99.90
17348;DHT22;8791;50.876;4.342;2023-05-14T02:17:36;13.40;99.90
17348;DHT22;8791;50.876;4.342;2023-05-14T02:20:04;13.50;99.90
17348;DHT22;8791;50.876;4.342;2023-05-14T02:22:31;13.40;99.90
17348;DHT22;8791;50.876;4.342;2023-05-14T02:24:58;13.50;99.90
17348;DHT22;8791;50.876;4.342;2023-05-14T02:27:25;13.60;99.90
17348;DHT22;8791;50.876;4.342;2023-05-14T02:29:52;13.70;99.90
17348;DHT22;8791;50.876;4.342;2023-05-14T02:32:22;13.50;99.90
17348;DHT22;8791;50.876;4.342;2023-05-14T02:34:49;13.40;99.90
17348;DHT22;8791;50.876;4.342;2023-05-14T02:37:16;13.50;99.90
17348;DHT22;8791;50.876;4.342;2023-05-14T02:39:43;13.40;99.90
17348;DHT22;8791;50.876;4.342;2023-05-14T02:42:09;13.30;99.90
17348;DHT22;8791;50.876;4.342;2023-05-14T02:44:36;13.20;99.90
17348;DHT22;8791;50.876;4.342;2023-05-14T02:47:04;13.10;99.90
17348;DHT22;8791;50.876;4.342;2023-05-14T02:49:32;13.10;99.90
17348;DHT22;8791;50.876;4.342;2023-05-14T02:51:59;13.20;99.90
17348;DHT22;8791;50.876;4.342;2023-05-14T02:54:26;13.10;99.90
17348;DHT22;8791;50.876;4.342;2023-05-14T02:56:53;13.20;99.90
17348;DHT22;8791;50.876;4.342;2023-05-14T02:59:20;13.40;99.90
17348;DHT22;8791;50.876;4.342;2023-05-14T03:01:48;13.40;99.90
17348;DHT22;8791;50.876;4.342;2023-05-14T03:04:15;13.50;99.90
17348;DHT22;8791;50.876;4.342;2023-05-14T03:06:43;13.60;99.90
17348;DHT22;8791;50.876;4.342;2023-05-14T03:09:10;13.60;99.90
17348;DHT22;8791;50.876;4.342;2023-05-14T03:11:37;13.50;99.90
17348;DHT22;8791;50.876;4.342;2023-05-14T03:14:04;13.60;99.90
17348;DHT22;8791;50.876;4.342;2023-05-14T03:16:30;13.70;99.90
17348;DHT22;8791;50.876;4.342;2023-05-14T03:18:57;13.90;99.90
17348;DHT22;8791;50.876;4.342;2023-05-14T03:21:24;13.90;99.90
17348;DHT22;8791;50.876;4.342;2023-05-14T03:23:53;13.80;99.90
17348;DHT22;8791;50.876;4.342;2023-05-14T03:26:20;13.30;99.90
17348;DHT22;8791;50.876;4.342;2023-05-14T03:28:47;13.20;99.90
17348;DHT22;8791;50.876;4.342;2023-05-14T03:31:14;13.30;99.90
17348;DHT22;8791;50.876;4.342;2023-05-14T03:33:41;13.30;99.90
17348;DHT22;8791;50.876;4.342;2023-05-14T03:36:08;13.20;99.90
17348;DHT22;8791;50.876;4.342;2023-05-14T03:38:35;13.40;99.90
17348;DHT22;8791;50.876;4.342;2023-05-14T03:41:03;13.60;99.90
17348;DHT22;8791;50.876;4.342;2023-05-14T03:43:30;13.80;99.90
17348;DHT22;8791;50.876;4.342;2023-05-14T03:45:56;13.70;99.90
17348;DHT22;8791;50.876;4.342;2023-05-14T03:48:23;13.70;99.90
17348;DHT22;8791;50.876;4.342;2023-05-14T03:50:50;13.50;99.90
17348;DHT22;8791;50.876;4.342;2023-05-14T03:53:17;13.30;99.90
17348;DHT22;8791;50.876;4.342;2023-05-14T03:55:44;13.30;99.90
17348;DHT22;8791;50.876;4.342;2023-05-14T03:58:12;13.40;99.90
17348;DHT22;8791;50.876;4.342;2023-05-14T04:00:39;13.50;99.90
17348;DHT22;8791;50.876;4.342;2023-05-14T04:03:07;13.60;99.90
17348;DHT22;8791;50.876;4.342;2023-05-14T04:05:34;13.60;99.90
17348;DHT22;8791;50.876;4.342;2023-05-14T04:08:01;13.50;99.90
17348;DHT22;8791;50.876;4.342;2023-05-14T04:10:28;13.60;99.90
17348;DHT22;8791;50.876;4.342;2023-05-14T04:12:55;13.60;99.90
17348;DHT22;8791;50.876;4.342;2023-05-14T04:15:23;13.40;99.90
17348;DHT22;8791;50.876;4.342;2023-05-14T04:17:50;13.50;99.90
17348;DHT22;8791;50.876;4.342;2023-05-14T04:20:17;13.40;99.90
17348;DHT22;8791;50.876;4.342;2023-05-14T04:22:44;13.50;99.90
17348;DHT22;8791;50.876;4.342;2023-05-14T04:25:11;13.40;99.90
17348;DHT22;8791;50.876;4.342;2023-05-14T04:27:39;13.40;99.90
17348;DHT22;8791;50.876;4.342;2023-05-14T04:30:07;13.40;99.90
17348;DHT22;8791;50.876;4.342;2023-05-14T04:32:35;13.30;99.90
17348;DHT22;8791;50.876;4.342;2023-05-14T04:35:02;13.30;99.90
17348;DHT22;8791;50.876;4.342;2023-05-14T04:37:29;13.20;99.90
17348;DHT22;8791;50.876;4.342;2023-05-14T04:39:57;13.30;99.90
17348;DHT22;8791;50.876;4.342;2023-05-14T04:42:24;13.50;99.90
17348;DHT22;8791;50.876;4.342;2023-05-14T04:44:51;13.60;99.90
17348;DHT22;8791;50.876;4.342;2023-05-14T04:47:18;13.70;99.90
17348;DHT22;8791;50.876;4.342;2023-05-14T04:49:47;13.80;99.90
17348;DHT22;8791;50.876;4.342;2023-05-14T04:52:14;13.90;99.90
17348;DHT22;8791;50.876;4.342;2023-05-14T04:54:41;13.80;99.90
17348;DHT22;8791;50.876;4.342;2023-05-14T04:57:07;13.80;99.90
17348;DHT22;8791;50.876;4.342;2023-05-14T04:59:34;13.50;99.90
17348;DHT22;8791;50.876;4.342;2023-05-14T05:02:01;13.40;99.90
17348;DHT22;8791;50.876;4.342;2023-05-14T05:04:28;13.50;99.90
17348;DHT22;8791;50.876;4.342;2023-05-14T05:06:56;13.60;99.90
17348;DHT22;8791;50.876;4.342;2023-05-14T05:09:23;13.70;99.90
17348;DHT22;8791;50.876;4.342;2023-05-14T05:11:50;13.70;99.90
17348;DHT22;8791;50.876;4.342;2023-05-14T05:14:17;13.70;99.90
17348;DHT22;8791;50.876;4.342;2023-05-14T05:16:44;13.50;99.90
17348;DHT22;8791;50.876;4.342;2023-05-14T05:19:11;13.50;99.90
17348;DHT22;8791;50.876;4.342;2023-05-14T05:21:38;13.50;99.90
17348;DHT22;8791;50.876;4.342;2023-05-14T05:24:07;13.30;99.90
17348;DHT22;8791;50.876;4.342;2023-05-14T05:26:34;13.20;99.90
17348;DHT22;8791;50.876;4.342;2023-05-14T05:29:02;13.30;99.90
17348;DHT22;8791;50.876;4.342;2023-05-14T05:31:29;13.50;99.90
17348;DHT22;8791;50.876;4.342;2023-05-14T05:33:57;13.60;99.90
17348;DHT22;8791;50.876;4.342;2023-05-14T05:36:24;13.60;99.90
17348;DHT22;8791;50.876;4.342;2023-05-14T05:38:52;13.70;99.90
17348;DHT22;8791;50.876;4.342;2023-05-14T05:41:20;13.60;99.90
17348;DHT22;8791;50.876;4.342;2023-05-14T05:43:47;13.50;99.90
17348;DHT22;8791;50.876;4.342;2023-05-14T05:46:14;13.60;99.90
17348;DHT22;8791;50.876;4.342;2023-05-14T05:48:41;13.60;99.90
17348;DHT22;8791;50.876;4.342;2023-05-14T05:51:07;13.60;99.90
17348;DHT22;8791;50.876;4.342;2023-05-14T05:53:34;13.60;99.90
17348;DHT22;8791;50.876;4.342;2023-05-14T05:56:01;13.70;99.90
17348;DHT22;8791;50.876;4.342;2023-05-14T05:58:30;13.70;99.90
17348;DHT22;8791;50.876;4.342;2023-05-14T06:00:57;13.70;99.90
17348;DHT22;8791;50.876;4.342;2023-05-14T06:03:23;13.80;99.90
17348;DHT22;8791;50.876;4.342;2023-05-14T06:05:51;13.90;99.90
17348;DHT22;8791;50.876;4.342;2023-05-14T06:08:18;14.00;99.90
17348;DHT22;8791;50.876;4.342;2023-05-14T06:10:45;13.80;99.90
17348;DHT22;8791;50.876;4.342;2023-05-14T06:13:12;13.90;99.90
17348;DHT22;8791;50.876;4.342;2023-05-14T06:15:40;14.00;99.90
17348;DHT22;8791;50.876;4.342;2023-05-14T06:18:07;14.10;99.90
17348;DHT22;8791;50.876;4.342;2023-05-14T06:20:34;14.10;99.90
17348;DHT22;8791;50.876;4.342;2023-05-14T06:23:01;14.00;99.90
17348;DHT22;8791;50.876;4.342;2023-05-14T06:25:28;13.90;99.90
17348;DHT22;8791;50.876;4.342;2023-05-14T06:27:54;13.60;99.90
17348;DHT22;8791;50.876;4.342;2023-05-14T06:30:21;13.50;99.90
17348;DHT22;8791;50.876;4.342;2023-05-14T06:32:50;13.70;99.90
17348;DHT22;8791;50.876;4.342;2023-05-14T06:35:17;13.60;99.90
17348;DHT22;8791;50.876;4.342;2023-05-14T06:37:45;13.60;99.90
17348;DHT22;8791;50.876;4.342;2023-05-14T06:40:12;13.60;99.90
17348;DHT22;8791;50.876;4.342;2023-05-14T06:42:40;13.70;99.90
17348;DHT22;8791;50.876;4.342;2023-05-14T06:45:07;13.70;99.90
17348;DHT22;8791;50.876;4.342;2023-05-14T06:47:34;13.70;99.90
17348;DHT22;8791;50.876;4.342;2023-05-14T06:50:03;13.60;99.90
17348;DHT22;8791;50.876;4.342;2023-05-14T06:52:30;13.70;99.90
17348;DHT22;8791;50.876;4.342;2023-05-14T06:54:57;13.80;99.90
17348;DHT22;8791;50.876;4.342;2023-05-14T06:57:24;13.60;99.90
17348;DHT22;8791;50.876;4.342;2023-05-14T06:59:51;13.70;99.90
17348;DHT22;8791;50.876;4.342;2023-05-14T07:02:18;13.60;99.90
17348;DHT22;8791;50.876;4.342;2023-05-14T07:04:45;13.30;99.90
17348;DHT22;8791;50.876;4.342;2023-05-14T07:07:13;13.20;99.90
17348;DHT22;8791;50.876;4.342;2023-05-14T07:09:45;13.20;99.90
17348;DHT22;8791;50.876;4.342;2023-05-14T07:12:11;13.20;99.90
17348;DHT22;8791;50.876;4.342;2023-05-14T07:14:38;13.20;99.90
17348;DHT22;8791;50.876;4.342;2023-05-14T07:17:05;13.20;99.90
17348;DHT22;8791;50.876;4.342;2023-05-14T07:19:32;13.40;99.90
17348;DHT22;8791;50.876;4.342;2023-05-14T07:21:59;13.60;99.90
17348;DHT22;8791;50.876;4.342;2023-05-14T07:24:28;13.80;99.90
17348;DHT22;8791;50.876;4.342;2023-05-14T07:26:55;14.10;99.90
17348;DHT22;8791;50.876;4.342;2023-05-14T07:29:22;14.10;99.90
17348;DHT22;8791;50.876;4.342;2023-05-14T07:31:50;14.10;99.90
17348;DHT22;8791;50.876;4.342;2023-05-14T07:34:17;14.20;99.90
17348;DHT22;8791;50.876;4.342;2023-05-14T07:36:45;14.20;99.90
17348;DHT22;8791;50.876;4.342;2023-05-14T07:39:12;14.10;99.90
17348;DHT22;8791;50.876;4.342;2023-05-14T07:41:40;14.00;99.90
17348;DHT22;8791;50.876;4.342;2023-05-14T07:44:07;13.80;99.90
17348;DHT22;8791;50.876;4.342;2023-05-14T07:46:35;14.00;99.90
17348;DHT22;8791;50.876;4.342;2023-05-14T07:49:01;13.70;99.90
17348;DHT22;8791;50.876;4.342;2023-05-14T07:51:28;13.60;99.90
17348;DHT22;8791;50.876;4.342;2023-05-14T07:53:58;13.50;99.90
17348;DHT22;8791;50.876;4.342;2023-05-14T07:56:25;13.40;99.90
17348;DHT22;8791;50.876;4.342;2023-05-14T07:58:53;13.70;99.90
17348;DHT22;8791;50.876;4.342;2023-05-14T08:01:21;13.80;99.90
17348;DHT22;8791;50.876;4.342;2023-05-14T08:03:48;13.80;99.90
17348;DHT22;8791;50.876;4.342;2023-05-14T08:06:15;13.90;99.90
17348;DHT22;8791;50.876;4.342;2023-05-14T08:08:42;14.00;99.90
17348;DHT22;8791;50.876;4.342;2023-05-14T08:11:09;14.10;99.90
17348;DHT22;8791;50.876;4.342;2023-05-14T08:13:36;14.30;99.90
17348;DHT22;8791;50.876;4.342;2023-05-14T08:16:05;14.30;99.90
17348;DHT22;8791;50.876;4.342;2023-05-14T08:18:32;14.30;99.90
17348;DHT22;8791;50.876;4.342;2023-05-14T08:21:00;14.50;99.90
17348;DHT22;8791;50.876;4.342;2023-05-14T08:23:27;14.80;99.90
17348;DHT22;8791;50.876;4.342;2023-05-14T08:25:54;14.80;99.90
17348;DHT22;8791;50.876;4.342;2023-05-14T08:28:21;14.90;99.90
17348;DHT22;8791;50.876;4.342;2023-05-14T08:30:48;14.80;99.90
17348;DHT22;8791;50.876;4.342;2023-05-14T08:33:17;15.10;99.90
17348;DHT22;8791;50.876;4.342;2023-05-14T08:35:44;15.00;99.90
17348;DHT22;8791;50.876;4.342;2023-05-14T08:38:11;15.00;99.90
17348;DHT22;8791;50.876;4.342;2023-05-14T08:40:38;15.10;99.90
17348;DHT22;8791;50.876;4.342;2023-05-14T08:43:05;15.10;99.90
17348;DHT22;8791;50.876;4.342;2023-05-14T08:45:33;15.20;99.90
17348;DHT22;8791;50.876;4.342;2023-05-14T08:48:02;15.00;99.90
17348;DHT22;8791;50.876;4.342;2023-05-14T08:50:35;15.20;99.90
17348;DHT22;8791;50.876;4.342;2023-05-14T08:53:02;15.20;99.90
17348;DHT22;8791;50.876;4.342;2023-05-14T08:55:29;15.30;99.90
17348;DHT22;8791;50.876;4.342;2023-05-14T08:57:58;15.30;99.90
17348;DHT22;8791;50.876;4.342;2023-05-14T09:00:25;15.40;99.90
17348;DHT22;8791;50.876;4.342;2023-05-14T09:02:53;15.20;99.90
17348;DHT22;8791;50.876;4.342;2023-05-14T09:05:20;15.10;99.90
17348;DHT22;8791;50.876;4.342;2023-05-14T09:07:49;15.00;99.90
17348;DHT22;8791;50.876;4.342;2023-05-14T09:10:16;15.10;99.90
17348;DHT22;8791;50.876;4.342;2023-05-14T09:12:43;15.20;99.90
17348;DHT22;8791;50.876;4.342;2023-05-14T09:15:10;15.50;99.90
17348;DHT22;8791;50.876;4.342;2023-05-14T09:17:37;15.70;99.90
17348;DHT22;8791;50.876;4.342;2023-05-14T09:20:05;16.10;99.90
17348;DHT22;8791;50.876;4.342;2023-05-14T09:22:33;16.30;99.90
17348;DHT22;8791;50.876;4.342;2023-05-14T09:25:03;16.40;99.90
17348;DHT22;8791;50.876;4.342;2023-05-14T09:27:31;16.50;99.90
17348;DHT22;8791;50.876;4.342;2023-05-14T09:30:07;16.40;99.90
17348;DHT22;8791;50.876;4.342;2023-05-14T09:32:35;16.50;99.90
17348;DHT22;8791;50.876;4.342;2023-05-14T09:35:10;16.40;99.90
17348;DHT22;8791;50.876;4.342;2023-05-14T09:37:40;16.60;99.90
17348;DHT22;8791;50.876;4.342;2023-05-14T09:40:09;16.60;99.90
17348;DHT22;8791;50.876;4.342;2023-05-14T09:42:37;16.60;99.90
17348;DHT22;8791;50.876;4.342;2023-05-14T09:45:06;16.70;99.90
17348;DHT22;8791;50.876;4.342;2023-05-14T09:47:33;16.80;99.90
17348;DHT22;8791;50.876;4.342;2023-05-14T09:50:00;16.90;99.90
17348;DHT22;8791;50.876;4.342;2023-05-14T09:52:28;16.80;99.90
17348;DHT22;8791;50.876;4.342;2023-05-14T09:54:55;16.60;99.90
17348;DHT22;8791;50.876;4.342;2023-05-14T09:57:23;16.50;99.90
17348;DHT22;8791;50.876;4.342;2023-05-14T09:59:51;16.80;99.90
17348;DHT22;8791;50.876;4.342;2023-05-14T10:02:22;16.80;99.90
17348;DHT22;8791;50.876;4.342;2023-05-14T10:04:50;16.90;99.90
17348;DHT22;8791;50.876;4.342;2023-05-14T10:07:21;17.10;99.90
17348;DHT22;8791;50.876;4.342;2023-05-14T10:09:50;17.30;99.90
17348;DHT22;8791;50.876;4.342;2023-05-14T10:12:22;17.20;99.90
17348;DHT22;8791;50.876;4.342;2023-05-14T10:14:52;17.20;99.90
17348;DHT22;8791;50.876;4.342;2023-05-14T10:17:21;17.30;99.90
17348;DHT22;8791;50.876;4.342;2023-05-14T10:19:52;17.40;99.90
17348;DHT22;8791;50.876;4.342;2023-05-14T10:22:22;17.40;99.90
17348;DHT22;8791;50.876;4.342;2023-05-14T10:24:50;17.00;99.90
17348;DHT22;8791;50.876;4.342;2023-05-14T10:27:19;17.10;99.90
17348;DHT22;8791;50.876;4.342;2023-05-14T10:29:53;17.00;99.90
17348;DHT22;8791;50.876;4.342;2023-05-14T10:32:20;16.80;99.90
17348;DHT22;8791;50.876;4.342;2023-05-14T10:34:49;16.80;99.90
17348;DHT22;8791;50.876;4.342;2023-05-14T10:37:17;16.90;99.90
17348;DHT22;8791;50.876;4.342;2023-05-14T10:39:46;17.10;99.90
17348;DHT22;8791;50.876;4.342;2023-05-14T10:42:16;17.20;99.90
17348;DHT22;8791;50.876;4.342;2023-05-14T10:44:55;17.10;99.90
17348;DHT22;8791;50.876;4.342;2023-05-14T10:47:23;17.30;99.90
17348;DHT22;8791;50.876;4.342;2023-05-14T10:49:54;17.40;99.90
17348;DHT22;8791;50.876;4.342;2023-05-14T10:52:21;17.70;99.90
17348;DHT22;8791;50.876;4.342;2023-05-14T10:54:49;17.80;99.90
17348;DHT22;8791;50.876;4.342;2023-05-14T10:57:18;17.90;99.90
17348;DHT22;8791;50.876;4.342;2023-05-14T10:59:49;17.80;99.90
17348;DHT22;8791;50.876;4.342;2023-05-14T11:02:21;18.00;99.90
17348;DHT22;8791;50.876;4.342;2023-05-14T11:04:53;18.00;99.90
17348;DHT22;8791;50.876;4.342;2023-05-14T11:07:23;18.00;99.90
17348;DHT22;8791;50.876;4.342;2023-05-14T11:09:50;18.10;99.90
17348;DHT22;8791;50.876;4.342;2023-05-14T11:12:18;18.20;99.90
17348;DHT22;8791;50.876;4.342;2023-05-14T11:14:46;18.20;99.90
17348;DHT22;8791;50.876;4.342;2023-05-14T11:17:14;18.00;99.90
17348;DHT22;8791;50.876;4.342;2023-05-14T11:19:43;18.10;99.90
17348;DHT22;8791;50.876;4.342;2023-05-14T11:22:10;18.20;99.90
17348;DHT22;8791;50.876;4.342;2023-05-14T11:24:39;18.50;99.90
17348;DHT22;8791;50.876;4.342;2023-05-14T11:27:07;18.50;99.90
17348;DHT22;8791;50.876;4.342;2023-05-14T11:29:34;18.30;99.90
17348;DHT22;8791;50.876;4.342;2023-05-14T11:32:03;18.20;99.90
17348;DHT22;8791;50.876;4.342;2023-05-14T11:34:30;18.20;99.90
17348;DHT22;8791;50.876;4.342;2023-05-14T11:37:01;18.30;99.90
17348;DHT22;8791;50.876;4.342;2023-05-14T11:39:28;18.60;99.90
17348;DHT22;8791;50.876;4.342;2023-05-14T11:41:56;18.70;99.90
17348;DHT22;8791;50.876;4.342;2023-05-14T11:44:23;18.70;99.90
17348;DHT22;8791;50.876;4.342;2023-05-14T11:46:54;18.80;99.90
17348;DHT22;8791;50.876;4.342;2023-05-14T11:49:22;18.90;99.90
17348;DHT22;8791;50.876;4.342;2023-05-14T11:51:49;18.50;99.90
17348;DHT22;8791;50.876;4.342;2023-05-14T11:54:17;18.70;99.90
17348;DHT22;8791;50.876;4.342;2023-05-14T11:56:49;18.80;99.90
17348;DHT22;8791;50.876;4.342;2023-05-14T11:59:17;18.90;99.90
17348;DHT22;8791;50.876;4.342;2023-05-14T12:01:45;18.80;99.90
17348;DHT22;8791;50.876;4.342;2023-05-14T12:04:12;18.80;99.90
17348;DHT22;8791;50.876;4.342;2023-05-14T12:06:39;18.90;99.90
17348;DHT22;8791;50.876;4.342;2023-05-14T12:09:06;18.90;99.90
17348;DHT22;8791;50.876;4.342;2023-05-14T12:11:36;18.50;99.90
17348;DHT22;8791;50.876;4.342;2023-05-14T12:14:10;18.70;99.90
17348;DHT22;8791;50.876;4.342;2023-05-14T12:16:39;18.50;99.90
17348;DHT22;8791;50.876;4.342;2023-05-14T12:19:08;18.50;99.90
17348;DHT22;8791;50.876;4.342;2023-05-14T12:21:37;18.70;99.90
17348;DHT22;8791;50.876;4.342;2023-05-14T12:24:07;18.80;99.90
17348;DHT22;8791;50.876;4.342;2023-05-14T12:26:36;19.10;99.90
17348;DHT22;8791;50.876;4.342;2023-05-14T12:29:04;19.10;99.90
17348;DHT22;8791;50.876;4.342;2023-05-14T12:31:33;19.50;99.90
17348;DHT22;8791;50.876;4.342;2023-05-14T12:34:01;19.50;99.90
17348;DHT22;8791;50.876;4.342;2023-05-14T12:36:28;19.50;99.90
17348;DHT22;8791;50.876;4.342;2023-05-14T12:38:58;19.60;99.90
17348;DHT22;8791;50.876;4.342;2023-05-14T12:41:26;19.90;99.90
17348;DHT22;8791;50.876;4.342;2023-05-14T12:43:54;19.80;99.90
17348;DHT22;8791;50.876;4.342;2023-05-14T12:46:21;19.80;99.90
17348;DHT22;8791;50.876;4.342;2023-05-14T12:48:48;19.70;99.90
17348;DHT22;8791;50.876;4.342;2023-05-14T12:51:15;19.60;99.90
17348;DHT22;8791;50.876;4.342;2023-05-14T12:53:42;19.60;99.90
17348;DHT22;8791;50.876;4.342;2023-05-14T12:56:09;19.80;99.90
17348;DHT22;8791;50.876;4.342;2023-05-14T12:58:36;19.90;99.90
17348;DHT22;8791;50.876;4.342;2023-05-14T13:01:05;20.00;99.90
17348;DHT22;8791;50.876;4.342;2023-05-14T13:03:32;20.10;99.90
17348;DHT22;8791;50.876;4.342;2023-05-14T13:05:59;20.20;99.90
17348;DHT22;8791;50.876;4.342;2023-05-14T13:08:27;20.40;99.90
17348;DHT22;8791;50.876;4.342;2023-05-14T13:10:54;20.60;99.90
17348;DHT22;8791;50.876;4.342;2023-05-14T13:13:21;20.70;99.90
17348;DHT22;8791;50.876;4.342;2023-05-14T13:15:48;20.80;99.90
17348;DHT22;8791;50.876;4.342;2023-05-14T13:18:17;20.90;99.90
17348;DHT22;8791;50.876;4.342;2023-05-14T13:20:44;20.50;99.90
17348;DHT22;8791;50.876;4.342;2023-05-14T13:23:12;20.10;99.90
17348;DHT22;8791;50.876;4.342;2023-05-14T13:25:39;20.20;99.90
17348;DHT22;8791;50.876;4.342;2023-05-14T13:28:06;20.40;99.90
17348;DHT22;8791;50.876;4.342;2023-05-14T13:30:32;20.60;99.90
17348;DHT22;8791;50.876;4.342;2023-05-14T13:32:59;20.60;99.90
17348;DHT22;8791;50.876;4.342;2023-05-14T13:35:27;20.70;99.90
17348;DHT22;8791;50.876;4.342;2023-05-14T13:37:54;20.90;99.90
17348;DHT22;8791;50.876;4.342;2023-05-14T13:40:21;20.90;99.90
17348;DHT22;8791;50.876;4.342;2023-05-14T13:42:48;21.00;99.90
17348;DHT22;8791;50.876;4.342;2023-05-14T13:45:15;21.00;99.90
17348;DHT22;8791;50.876;4.342;2023-05-14T13:47:43;21.10;99.90
17348;DHT22;8791;50.876;4.342;2023-05-14T13:50:10;21.40;99.90
17348;DHT22;8791;50.876;4.342;2023-05-14T13:52:38;21.20;99.90
17348;DHT22;8791;50.876;4.342;2023-05-14T13:55:06;20.90;99.90
17348;DHT22;8791;50.876;4.342;2023-05-14T13:57:34;20.90;99.90
17348;DHT22;8791;50.876;4.342;2023-05-14T14:00:01;21.20;99.90
17348;DHT22;8791;50.876;4.342;2023-05-14T14:02:29;21.30;99.90
17348;DHT22;8791;50.876;4.342;2023-05-14T14:04:56;21.30;99.90
17348;DHT22;8791;50.876;4.342;2023-05-14T14:07:23;21.50;99.90
17348;DHT22;8791;50.876;4.342;2023-05-14T14:09:51;21.70;99.90
17348;DHT22;8791;50.876;4.342;2023-05-14T14:12:18;21.70;99.90
17348;DHT22;8791;50.876;4.342;2023-05-14T14:14:45;21.70;99.90
17348;DHT22;8791;50.876;4.342;2023-05-14T14:17:12;21.50;99.90
17348;DHT22;8791;50.876;4.342;2023-05-14T14:19:38;21.30;99.90
17348;DHT22;8791;50.876;4.342;2023-05-14T14:22:05;21.60;99.90
17348;DHT22;8791;50.876;4.342;2023-05-14T14:24:32;21.90;99.90
17348;DHT22;8791;50.876;4.342;2023-05-14T14:27:00;21.90;99.90
17348;DHT22;8791;50.876;4.342;2023-05-14T14:29:27;22.00;99.90
17348;DHT22;8791;50.876;4.342;2023-05-14T14:31:55;22.00;99.90
17348;DHT22;8791;50.876;4.342;2023-05-14T14:34:22;21.80;99.90
17348;DHT22;8791;50.876;4.342;2023-05-14T14:36:49;21.80;99.90
17348;DHT22;8791;50.876;4.342;2023-05-14T14:39:16;21.60;99.90
17348;DHT22;8791;50.876;4.342;2023-05-14T14:41:43;21.50;99.90
17348;DHT22;8791;50.876;4.342;2023-05-14T14:44:11;21.50;99.90
17348;DHT22;8791;50.876;4.342;2023-05-14T14:46:38;21.50;99.90
17348;DHT22;8791;50.876;4.342;2023-05-14T14:49:07;21.60;99.90
17348;DHT22;8791;50.876;4.342;2023-05-14T14:51:34;21.70;99.90
17348;DHT22;8791;50.876;4.342;2023-05-14T14:54:01;21.20;99.90
17348;DHT22;8791;50.876;4.342;2023-05-14T14:56:29;21.10;99.90
17348;DHT22;8791;50.876;4.342;2023-05-14T14:58:56;21.10;99.90
17348;DHT22;8791;50.876;4.342;2023-05-14T15:01:25;21.10;99.90
17348;DHT22;8791;50.876;4.342;2023-05-14T15:03:52;21.20;99.90
17348;DHT22;8791;50.876;4.342;2023-05-14T15:06:19;21.10;99.90
17348;DHT22;8791;50.876;4.342;2023-05-14T15:08:46;20.80;99.90
17348;DHT22;8791;50.876;4.342;2023-05-14T15:11:13;20.60;99.90
17348;DHT22;8791;50.876;4.342;2023-05-14T15:13:40;20.80;99.90
17348;DHT22;8791;50.876;4.342;2023-05-14T15:16:07;20.80;99.90
17348;DHT22;8791;50.876;4.342;2023-05-14T15:18:35;20.70;99.90
17348;DHT22;8791;50.876;4.342;2023-05-14T15:21:02;20.90;99.90
17348;DHT22;8791;50.876;4.342;2023-05-14T15:23:30;20.70;99.90
17348;DHT22;8791;50.876;4.342;2023-05-14T15:25:57;20.50;99.90
17348;DHT22;8791;50.876;4.342;2023-05-14T15:28:24;20.70;99.90
17348;DHT22;8791;50.876;4.342;2023-05-14T15:30:51;20.80;99.90
17348;DHT22;8791;50.876;4.342;2023-05-14T15:33:18;20.80;99.90
17348;DHT22;8791;50.876;4.342;2023-05-14T15:35:46;20.90;99.90
17348;DHT22;8791;50.876;4.342;2023-05-14T15:38:13;20.80;99.90
17348;DHT22;8791;50.876;4.342;2023-05-14T15:40:40;20.70;99.90
17348;DHT22;8791;50.876;4.342;2023-05-14T15:43:07;20.90;99.90
17348;DHT22;8791;50.876;4.342;2023-05-14T15:45:34;20.60;99.90
17348;DHT22;8791;50.876;4.342;2023-05-14T15:48:01;20.50;99.90